createdAt,value
2023-03-18T00:04:24.413Z,100.00
2023-03-18T00:09:28.882Z,100.00
2023-03-18T00:14:34.414Z,100.00
2023-03-18T00:19:38.154Z,100.00
2023-03-18T00:24:41.079Z,100.00
2023-03-18T00:29:45.959Z,100.00
2023-03-18T00:34:50.729Z,100.00
2023-03-18T00:39:54.554Z,100.00
2023-03-18T00:45:00.495Z,100.00
2023-03-18T00:50:03.956Z,100.00
2023-03-18T00:55:08.320Z,100.00
2023-03-18T01:00:17.122Z,100.00
2023-03-18T01:05:20.803Z,100.00
2023-03-18T01:10:23.676Z,100.00
2023-03-18T01:15:30.392Z,100.00
2023-03-18T01:20:33.910Z,100.00
2023-03-18T01:25:38.541Z,100.00
2023-03-18T01:30:47.799Z,100.00
2023-03-18T01:35:56.539Z,100.00
2023-03-18T01:41:02.970Z,100.00
2023-03-18T01:46:39.030Z,100.00
2023-03-18T01:51:46.296Z,100.00
2023-03-18T01:56:51.723Z,100.00
2023-03-18T02:02:01.570Z,100.00
2023-03-18T02:07:08.634Z,100.00
2023-03-18T02:12:13.782Z,100.00
2023-03-18T02:17:30.249Z,100.00
2023-03-18T02:22:39.242Z,100.00
2023-03-18T02:27:49.445Z,100.00
2023-03-18T02:32:53.800Z,100.00
2023-03-18T02:37:59.398Z,100.00
2023-03-18T02:43:24.668Z,100.00
2023-03-18T02:48:37.645Z,100.00
2023-03-18T02:53:41.864Z,100.00
2023-03-18T02:58:47.017Z,100.00
2023-03-18T03:03:52.280Z,100.00
2023-03-18T03:08:55.588Z,100.00
2023-03-18T03:14:01.306Z,100.00
2023-03-18T03:19:07.085Z,100.00
2023-03-18T03:24:13.176Z,100.00
2023-03-18T03:29:18.432Z,100.00
2023-03-18T03:34:21.338Z,100.00
2023-03-18T03:39:24.345Z,100.00
2023-03-18T03:44:31.099Z,100.00
2023-03-18T03:49:34.271Z,100.00
2023-03-18T03:54:38.129Z,100.00
2023-03-18T03:59:42.323Z,100.00
2023-03-18T04:04:54.617Z,100.00
2023-03-18T04:10:02.686Z,100.00
2023-03-18T04:15:11.079Z,100.00
2023-03-18T04:20:14.827Z,100.00
2023-03-18T04:25:17.790Z,100.00
2023-03-18T04:30:25.548Z,100.00
2023-03-18T04:35:35.486Z,100.00
2023-03-18T04:40:39.559Z,100.00
2023-03-18T04:45:43.895Z,100.00
2023-03-18T04:50:48.343Z,100.00
2023-03-18T04:55:57.927Z,100.00
2023-03-18T05:01:09.442Z,100.00
2023-03-18T05:06:23.076Z,100.00
2023-03-18T05:11:33.100Z,100.00
2023-03-18T05:16:45.789Z,100.00
2023-03-18T05:21:49.761Z,100.00
2023-03-18T05:26:56.044Z,100.00
2023-03-18T05:32:07.122Z,100.00
2023-03-18T05:37:11.404Z,100.00
2023-03-18T05:42:19.758Z,100.00
2023-03-18T05:47:24.446Z,100.00
2023-03-18T05:52:36.324Z,100.00
2023-03-18T05:57:43.399Z,100.00
2023-03-18T06:02:48.868Z,100.00
2023-03-18T06:07:54.868Z,100.00
2023-03-18T06:12:58.376Z,100.00
2023-03-18T06:18:04.734Z,100.00
2023-03-18T06:23:07.772Z,100.00
2023-03-18T06:28:11.066Z,100.00
2023-03-18T06:33:16.480Z,100.00
2023-03-18T06:38:19.364Z,100.00
2023-03-18T06:43:22.741Z,100.00
2023-03-18T06:48:28.357Z,100.00
2023-03-18T06:53:36.323Z,100.00
2023-03-18T06:58:39.480Z,100.00
2023-03-18T07:03:46.349Z,100.00
2023-03-18T07:08:50.174Z,100.00
2023-03-18T07:13:53.190Z,100.00
2023-03-18T07:19:04.378Z,100.00
2023-03-18T07:24:09.466Z,100.00
2023-03-18T07:29:12.431Z,100.00
2023-03-18T07:34:17.798Z,100.00
2023-03-18T07:39:20.929Z,100.00
2023-03-18T07:44:24.026Z,100.00
2023-03-18T07:49:30.065Z,100.00
2023-03-18T07:54:35.720Z,100.00
2023-03-18T07:59:38.914Z,100.00
2023-03-18T08:04:44.441Z,100.00
2023-03-18T08:09:54.155Z,100.00
2023-03-18T08:14:57.926Z,100.00
2023-03-18T08:20:02.667Z,100.00
2023-03-18T08:25:06.735Z,100.00
2023-03-18T08:30:11.036Z,100.00
2023-03-18T08:35:15.607Z,100.00
2023-03-18T08:40:20.344Z,100.00
2023-03-18T08:45:23.289Z,100.00
2023-03-18T08:50:29.847Z,100.00
2023-03-18T08:55:36.412Z,100.00
2023-03-18T09:00:43.451Z,100.00
2023-03-18T09:05:50.427Z,100.00
2023-03-18T09:10:57.477Z,100.00
2023-03-18T09:16:00.587Z,100.00
2023-03-18T09:21:05.478Z,100.00
2023-03-18T09:26:13.348Z,100.00
2023-03-18T09:31:16.502Z,100.00
2023-03-18T09:36:20.850Z,100.00
2023-03-18T09:41:38.918Z,100.00
2023-03-18T09:46:54.723Z,100.00
2023-03-18T09:52:14.768Z,100.00
2023-03-18T09:57:23.931Z,100.00
2023-03-18T10:02:33.536Z,99.94
2023-03-18T10:07:42.863Z,100.00
2023-03-18T10:12:51.682Z,100.00
2023-03-18T10:17:58.486Z,96.77
2023-03-18T10:23:21.444Z,94.20
2023-03-18T10:29:15.251Z,89.16
2023-03-18T10:34:22.966Z,87.43
2023-03-18T10:39:28.680Z,89.39
2023-03-18T10:44:35.802Z,85.84
2023-03-18T10:49:43.433Z,80.55
2023-03-18T10:54:52.476Z,84.34
2023-03-18T10:59:55.753Z,74.37
2023-03-18T11:05:06.038Z,76.70
2023-03-18T11:10:18.806Z,77.96
2023-03-18T11:15:24.145Z,73.44
2023-03-18T11:20:42.857Z,70.05
2023-03-18T11:25:56.603Z,64.90
2023-03-18T11:31:06.522Z,69.85
2023-03-18T11:36:14.347Z,68.93
2023-03-18T11:41:26.538Z,65.97
2023-03-18T11:46:33.602Z,69.14
2023-03-18T11:51:45.871Z,63.31
2023-03-18T11:56:57.251Z,64.68
2023-03-18T12:02:19.840Z,63.44
2023-03-18T12:07:42.959Z,60.41
2023-03-18T12:13:00.046Z,61.40
2023-03-18T12:18:12.975Z,65.82
2023-03-18T12:23:32.463Z,63.64
2023-03-18T12:29:01.670Z,64.07
2023-03-18T12:34:05.825Z,65.78
2023-03-18T12:39:33.940Z,63.26
2023-03-18T12:44:58.697Z,62.73
2023-03-18T12:50:04.672Z,62.27
2023-03-18T12:55:13.022Z,64.66
2023-03-18T13:00:27.995Z,59.81
2023-03-18T13:05:40.728Z,59.34
2023-03-18T13:10:48.483Z,62.63
2023-03-18T13:15:54.628Z,61.50
2023-03-18T13:20:59.927Z,62.43
2023-03-18T13:26:11.749Z,63.07
2023-03-18T13:31:27.161Z,63.37
2023-03-18T13:37:15.555Z,63.84
2023-03-18T13:42:26.195Z,66.20
2023-03-18T13:47:34.727Z,69.55
2023-03-18T13:52:43.973Z,70.48
2023-03-18T13:57:49.111Z,70.68
2023-03-18T14:03:07.770Z,69.15
2023-03-18T14:08:35.159Z,68.34
2023-03-18T14:13:38.328Z,66.83
2023-03-18T14:18:43.135Z,68.56
2023-03-18T14:24:07.642Z,67.46
2023-03-18T14:29:26.132Z,70.34
2023-03-18T14:34:33.951Z,69.01
2023-03-18T14:39:42.705Z,67.26
2023-03-18T14:44:50.340Z,65.40
2023-03-18T14:50:05.392Z,69.61
2023-03-18T14:55:20.735Z,65.98
2023-03-18T15:00:24.217Z,66.33
2023-03-18T15:05:36.230Z,63.77
2023-03-18T15:10:41.689Z,61.87
2023-03-18T15:15:47.027Z,60.91
2023-03-18T15:20:55.779Z,61.12
2023-03-18T15:25:59.820Z,59.62
2023-03-18T15:31:05.820Z,59.29
2023-03-18T15:36:16.481Z,58.46
2023-03-18T15:41:23.341Z,59.72
2023-03-18T15:46:30.651Z,59.50
2023-03-18T15:51:43.623Z,59.93
2023-03-18T15:56:51.682Z,60.12
2023-03-18T16:02:00.475Z,60.81
2023-03-18T16:07:17.227Z,60.13
2023-03-18T16:12:24.042Z,58.72
2023-03-18T16:17:26.874Z,59.84
2023-03-18T16:22:33.644Z,59.83
2023-03-18T16:27:39.290Z,59.76
2023-03-18T16:32:43.197Z,61.18
2023-03-18T16:37:49.260Z,61.95
2023-03-18T16:42:52.951Z,65.36
2023-03-18T16:48:00.621Z,66.54
2023-03-18T16:53:13.712Z,70.67
2023-03-18T16:58:20.979Z,74.36
2023-03-18T17:03:23.977Z,74.67
2023-03-18T17:08:29.190Z,71.85
2023-03-18T17:13:38.927Z,72.06
2023-03-18T17:18:43.592Z,75.85
2023-03-18T17:23:50.073Z,75.41
2023-03-18T17:28:53.965Z,81.65
2023-03-18T17:34:03.788Z,83.50
2023-03-18T17:39:08.988Z,88.14
2023-03-18T17:44:29.910Z,92.40
2023-03-18T17:49:39.953Z,95.03
2023-03-18T17:54:44.690Z,95.81
2023-03-18T17:59:54.026Z,97.82
2023-03-18T18:04:58.881Z,96.67
2023-03-18T18:10:03.154Z,98.61
2023-03-18T18:15:09.898Z,100.00
2023-03-18T18:20:16.290Z,100.00
2023-03-18T18:25:23.229Z,100.00
2023-03-18T18:30:27.929Z,100.00
2023-03-18T18:35:30.792Z,100.00
2023-03-18T18:40:35.773Z,100.00
2023-03-18T18:45:38.683Z,100.00
2023-03-18T18:50:43.697Z,100.00
2023-03-18T18:55:49.208Z,100.00
2023-03-18T19:00:53.005Z,100.00
2023-03-18T19:05:56.794Z,100.00
2023-03-18T19:11:03.944Z,100.00
2023-03-18T19:16:21.153Z,100.00
2023-03-18T19:21:24.624Z,100.00
2023-03-18T19:26:29.499Z,100.00
2023-03-18T19:31:35.518Z,100.00
2023-03-18T19:36:41.541Z,100.00
2023-03-18T19:41:48.031Z,100.00
2023-03-18T19:46:54.856Z,100.00
2023-03-18T19:51:57.741Z,100.00
2023-03-18T19:57:04.317Z,100.00
2023-03-18T20:02:21.037Z,100.00
2023-03-18T20:07:34.057Z,100.00
2023-03-18T20:12:40.348Z,100.00
2023-03-18T20:17:46.588Z,100.00
2023-03-18T20:22:53.867Z,100.00
2023-03-18T20:28:07.427Z,100.00
2023-03-18T20:33:10.659Z,100.00
2023-03-18T20:38:18.833Z,100.00
2023-03-18T20:43:25.492Z,100.00
2023-03-18T20:48:28.673Z,100.00
2023-03-18T20:53:37.890Z,100.00
2023-03-18T20:58:42.754Z,100.00
2023-03-18T21:03:49.054Z,100.00
2023-03-18T21:08:54.191Z,100.00
2023-03-18T21:13:58.935Z,100.00
2023-03-18T21:19:05.203Z,100.00
2023-03-18T21:24:25.074Z,100.00
2023-03-18T21:29:29.394Z,100.00
2023-03-18T21:34:33.308Z,100.00
2023-03-18T21:39:36.725Z,100.00
2023-03-18T21:44:41.265Z,100.00
2023-03-18T21:49:46.863Z,100.00
2023-03-18T21:54:50.044Z,100.00
2023-03-18T21:59:55.729Z,100.00
2023-03-18T22:05:01.383Z,100.00
2023-03-18T22:10:06.791Z,100.00
2023-03-18T22:15:35.901Z,100.00
2023-03-18T22:20:39.584Z,100.00
2023-03-18T22:25:44.535Z,100.00
2023-03-18T22:30:52.373Z,100.00
2023-03-18T22:35:55.843Z,100.00
2023-03-18T22:40:59.929Z,100.00
2023-03-18T22:46:08.111Z,100.00
2023-03-18T22:51:22.869Z,100.00
2023-03-18T22:56:25.877Z,100.00
2023-03-18T23:01:32.206Z,100.00
2023-03-18T23:06:35.412Z,100.00
2023-03-18T23:11:38.325Z,100.00
2023-03-18T23:16:42.509Z,100.00
2023-03-18T23:21:45.359Z,100.00
2023-03-18T23:26:51.260Z,100.00
2023-03-18T23:31:57.916Z,100.00
2023-03-18T23:37:09.784Z,100.00
2023-03-18T23:42:13.781Z,100.00
2023-03-18T23:47:18.029Z,100.00
2023-03-18T23:52:21.067Z,100.00
2023-03-18T23:57:24.224Z,100.00
